createdAt,value
2023-03-06T00:00:51.008Z,27.20
2023-03-06T00:03:19.018Z,25.98
2023-03-06T00:05:46.491Z,27.63
2023-03-06T00:08:13.940Z,26.00
2023-03-06T00:10:41.507Z,26.02
2023-03-06T00:13:13.714Z,24.45
2023-03-06T00:15:41.167Z,30.05
2023-03-06T00:18:08.855Z,27.95
2023-03-06T00:20:37.248Z,26.60
2023-03-06T00:23:05.153Z,28.17
2023-03-06T00:25:32.519Z,22.42
2023-03-06T00:27:59.908Z,29.60
2023-03-06T00:30:27.350Z,25.50
2023-03-06T00:32:55.018Z,25.40
2023-03-06T00:35:23.994Z,22.30
2023-03-06T00:37:51.455Z,26.13
2023-03-06T00:40:19.731Z,27.63
2023-03-06T00:42:47.900Z,23.63
2023-03-06T00:45:15.317Z,26.85
2023-03-06T00:47:43.302Z,30.65
2023-03-06T00:50:11.278Z,31.55
2023-03-06T00:52:39.085Z,31.60
2023-03-06T00:55:07.064Z,30.85
2023-03-06T00:57:34.337Z,32.63
2023-03-06T01:00:02.099Z,36.40
2023-03-06T01:02:30.735Z,34.33
2023-03-06T01:04:58.775Z,33.58
2023-03-06T01:07:27.999Z,35.20
2023-03-06T01:09:55.251Z,31.20
2023-03-06T01:12:23.574Z,34.60
2023-03-06T01:14:51.915Z,37.60
2023-03-06T01:17:19.229Z,32.10
2023-03-06T01:19:46.534Z,33.50
2023-03-06T01:22:14.459Z,34.50
2023-03-06T01:24:41.808Z,40.08
2023-03-06T01:27:09.240Z,32.38
2023-03-06T01:29:36.711Z,36.28
2023-03-06T01:32:04.202Z,36.30
2023-03-06T01:34:31.717Z,36.08
2023-03-06T01:36:59.074Z,32.22
2023-03-06T01:39:26.500Z,39.53
2023-03-06T01:41:53.852Z,37.90
2023-03-06T01:44:21.217Z,35.53
2023-03-06T01:46:48.693Z,36.83
2023-03-06T01:49:18.988Z,33.35
2023-03-06T01:51:53.196Z,37.60
2023-03-06T01:54:34.437Z,37.53
2023-03-06T01:57:12.032Z,36.83
2023-03-06T01:59:41.012Z,39.70
2023-03-06T02:02:11.158Z,37.65
2023-03-06T02:04:40.346Z,38.17
2023-03-06T02:07:08.695Z,35.20
2023-03-06T02:09:38.009Z,39.20
2023-03-06T02:12:11.608Z,37.80
2023-03-06T02:14:40.633Z,34.05
2023-03-06T02:17:10.914Z,40.42
2023-03-06T02:19:59.162Z,34.47
2023-03-06T02:22:36.437Z,34.13
2023-03-06T02:25:29.981Z,36.05
2023-03-06T02:27:57.814Z,35.92
2023-03-06T02:30:28.351Z,33.35
2023-03-06T02:32:56.060Z,39.85
2023-03-06T02:35:28.819Z,38.72
2023-03-06T02:38:00.100Z,34.13
2023-03-06T02:40:27.971Z,38.28
2023-03-06T02:42:57.577Z,43.13
2023-03-06T02:45:35.947Z,31.80
2023-03-06T02:48:04.190Z,32.63
2023-03-06T02:50:32.821Z,33.85
2023-03-06T02:53:01.820Z,30.65
2023-03-06T02:55:31.442Z,35.30
2023-03-06T02:57:59.255Z,38.65
2023-03-06T03:00:27.476Z,39.83
2023-03-06T03:02:55.016Z,39.13
2023-03-06T03:05:22.857Z,34.58
2023-03-06T03:07:57.792Z,35.45
2023-03-06T03:10:25.671Z,36.97
2023-03-06T03:12:53.074Z,44.95
2023-03-06T03:15:21.201Z,35.78
2023-03-06T03:17:48.622Z,45.05
2023-03-06T03:20:21.677Z,47.35
2023-03-06T03:22:56.450Z,49.55
2023-03-06T03:25:25.696Z,54.53
2023-03-06T03:27:56.036Z,52.75
2023-03-06T03:30:24.000Z,55.72
2023-03-06T03:32:51.422Z,51.95
2023-03-06T03:35:19.882Z,53.88
2023-03-06T03:37:47.989Z,54.45
2023-03-06T03:40:15.541Z,45.33
2023-03-06T03:42:43.526Z,54.88
2023-03-06T03:45:11.804Z,56.92
2023-03-06T03:47:40.848Z,57.05
2023-03-06T03:50:09.411Z,54.58
2023-03-06T03:52:37.962Z,53.97
2023-03-06T03:55:06.158Z,60.95
2023-03-06T03:57:33.706Z,54.92
2023-03-06T04:00:01.783Z,63.10
2023-03-06T04:02:47.414Z,58.50
2023-03-06T04:05:25.809Z,53.67
2023-03-06T04:07:54.091Z,54.42
2023-03-06T04:10:21.915Z,51.75
2023-03-06T04:12:50.192Z,52.60
2023-03-06T04:15:18.058Z,45.78
2023-03-06T04:17:47.339Z,43.03
2023-03-06T04:20:19.462Z,48.55
2023-03-06T04:22:48.003Z,43.92
2023-03-06T04:25:16.852Z,48.10
2023-03-06T04:27:44.546Z,41.28
2023-03-06T04:30:12.393Z,39.67
2023-03-06T04:32:41.819Z,41.85
2023-03-06T04:35:10.377Z,45.63
2023-03-06T04:37:46.015Z,40.05
2023-03-06T04:40:23.771Z,44.10
2023-03-06T04:42:51.282Z,39.40
2023-03-06T04:45:18.971Z,37.10
2023-03-06T04:47:47.218Z,37.90
2023-03-06T04:50:20.000Z,38.75
2023-03-06T04:52:47.905Z,34.75
2023-03-06T04:55:17.354Z,40.20
2023-03-06T04:57:48.004Z,41.35
2023-03-06T05:00:25.254Z,40.47
2023-03-06T05:03:05.759Z,38.35
2023-03-06T05:05:37.964Z,38.88
2023-03-06T05:08:07.076Z,41.67
2023-03-06T05:10:36.081Z,38.92
2023-03-06T05:13:04.241Z,32.75
2023-03-06T05:15:32.531Z,39.40
2023-03-06T05:19:18.415Z,36.20
2023-03-06T05:21:58.119Z,33.20
2023-03-06T05:24:33.816Z,35.13
2023-03-06T05:27:13.071Z,38.40
2023-03-06T05:29:42.597Z,33.33
2023-03-06T05:32:10.906Z,33.58
2023-03-06T05:34:40.886Z,32.03
2023-03-06T05:37:11.377Z,30.98
2023-03-06T05:39:41.788Z,32.00
2023-03-06T05:42:10.630Z,34.85
2023-03-06T05:44:39.823Z,32.45
2023-03-06T05:47:30.550Z,34.55
2023-03-06T05:50:20.513Z,30.33
2023-03-06T05:53:09.535Z,32.10
2023-03-06T05:55:43.991Z,33.58
2023-03-06T05:58:15.173Z,30.45
2023-03-06T06:01:14.554Z,29.48
2023-03-06T06:03:45.738Z,33.97
2023-03-06T06:07:11.287Z,36.42
2023-03-06T06:09:54.691Z,32.92
2023-03-06T06:12:26.883Z,34.67
2023-03-06T06:14:56.014Z,36.08
2023-03-06T06:17:24.082Z,37.03
2023-03-06T06:19:57.449Z,42.15
2023-03-06T06:22:25.899Z,38.55
2023-03-06T06:24:57.390Z,45.72
2023-03-06T06:27:26.073Z,39.28
2023-03-06T06:29:57.855Z,42.47
2023-03-06T06:32:28.315Z,38.63
2023-03-06T06:35:14.324Z,46.13
2023-03-06T06:37:45.993Z,40.45
2023-03-06T06:40:18.096Z,51.08
2023-03-06T06:42:47.586Z,49.65
2023-03-06T06:45:16.867Z,49.33
2023-03-06T06:47:46.785Z,38.40
2023-03-06T06:50:16.041Z,42.33
2023-03-06T06:56:14.269Z,50.72
2023-03-06T06:58:51.409Z,45.92
2023-03-06T07:01:36.353Z,49.42
2023-03-06T07:04:07.323Z,49.45
2023-03-06T07:06:43.334Z,60.53
2023-03-06T07:09:15.929Z,56.88
2023-03-06T07:11:43.752Z,62.38
2023-03-06T07:14:12.595Z,52.30
2023-03-06T07:16:42.214Z,63.85
2023-03-06T07:19:09.922Z,62.55
2023-03-06T07:21:37.768Z,59.25
2023-03-06T07:24:06.686Z,50.30
2023-03-06T07:26:37.809Z,61.72
2023-03-06T07:29:07.469Z,56.42
2023-03-06T07:31:37.621Z,40.33
2023-03-06T07:34:14.506Z,51.63
2023-03-06T07:36:51.630Z,57.17
2023-03-06T07:39:55.479Z,48.70
2023-03-06T07:42:32.996Z,50.22
2023-03-06T07:45:05.599Z,51.75
2023-03-06T07:47:41.828Z,54.70
2023-03-06T07:50:12.153Z,52.80
2023-03-06T07:52:46.715Z,53.03
2023-03-06T07:55:22.167Z,49.67
2023-03-06T07:57:55.704Z,50.15
2023-03-06T08:00:32.272Z,60.92
2023-03-06T08:03:08.947Z,59.25
2023-03-06T08:05:45.176Z,64.93
2023-03-06T08:08:20.471Z,60.65
2023-03-06T08:10:50.644Z,56.00
2023-03-06T08:13:18.993Z,56.63
2023-03-06T08:15:50.015Z,62.53
2023-03-06T08:18:23.402Z,60.35
2023-03-06T08:21:04.002Z,51.45
2023-03-06T08:23:35.955Z,51.17
2023-03-06T08:26:12.303Z,56.20
2023-03-06T08:28:43.464Z,38.63
2023-03-06T08:31:24.163Z,41.38
2023-03-06T08:33:52.974Z,38.08
2023-03-06T08:36:26.002Z,48.15
2023-03-06T08:39:50.642Z,39.60
2023-03-06T08:42:46.165Z,39.67
2023-03-06T08:45:46.958Z,37.97
2023-03-06T08:48:28.571Z,34.60
2023-03-06T08:50:57.141Z,34.63
2023-03-06T08:53:42.243Z,34.80
2023-03-06T08:56:25.955Z,36.25
2023-03-06T08:59:03.712Z,38.08
2023-03-06T09:01:35.477Z,28.35
2023-03-06T09:04:07.381Z,30.05
2023-03-06T09:06:38.899Z,37.55
2023-03-06T09:09:08.183Z,31.98
2023-03-06T09:11:39.837Z,31.08
2023-03-06T09:14:08.463Z,40.35
2023-03-06T09:16:39.219Z,29.45
2023-03-06T09:19:08.601Z,34.03
2023-03-06T09:21:36.717Z,31.45
2023-03-06T09:24:05.228Z,31.00
2023-03-06T09:26:45.373Z,32.38
2023-03-06T09:32:09.625Z,28.73
2023-03-06T09:34:39.826Z,27.52
2023-03-06T09:37:08.858Z,29.63
2023-03-06T09:39:36.886Z,29.23
2023-03-06T09:42:09.674Z,27.75
2023-03-06T09:44:41.746Z,28.00
2023-03-06T09:47:38.408Z,27.30
2023-03-06T09:50:20.389Z,26.00
2023-03-06T09:53:17.771Z,29.00
2023-03-06T09:55:57.501Z,30.30
2023-03-06T09:58:27.882Z,25.88
2023-03-06T10:01:20.039Z,22.95
2023-03-06T10:03:54.130Z,31.65
2023-03-06T10:06:28.698Z,26.75
2023-03-06T10:09:42.018Z,30.95
2023-03-06T10:12:29.347Z,26.92
2023-03-06T10:15:15.084Z,27.50
2023-03-06T10:17:45.202Z,24.55
2023-03-06T10:20:24.255Z,30.00
2023-03-06T10:23:25.409Z,29.05
2023-03-06T10:26:08.314Z,25.08
2023-03-06T10:28:45.334Z,33.85
2023-03-06T10:31:26.787Z,32.08
2023-03-06T10:34:25.961Z,26.23
2023-03-06T10:36:53.936Z,22.80
2023-03-06T10:39:23.596Z,31.25
2023-03-06T10:41:51.539Z,29.90
2023-03-06T10:44:22.176Z,36.95
2023-03-06T10:46:55.144Z,41.38
2023-03-06T10:49:39.362Z,44.75
2023-03-06T10:52:20.832Z,32.35
2023-03-06T10:54:51.489Z,27.90
2023-03-06T10:57:34.780Z,27.77
2023-03-06T11:00:23.914Z,30.33
2023-03-06T11:03:14.581Z,25.85
2023-03-06T11:05:59.774Z,33.00
2023-03-06T11:08:29.243Z,28.50
2023-03-06T11:11:06.399Z,27.02
2023-03-06T11:13:40.412Z,26.60
2023-03-06T11:16:37.931Z,28.35
2023-03-06T11:19:18.523Z,23.95
2023-03-06T11:22:19.024Z,21.65
2023-03-06T11:24:54.762Z,22.63
2023-03-06T11:27:37.042Z,26.50
2023-03-06T11:30:29.407Z,23.35
2023-03-06T11:33:07.084Z,20.98
2023-03-06T11:35:53.574Z,19.10
2023-03-06T11:38:28.120Z,18.50
2023-03-06T11:41:01.790Z,19.40
2023-03-06T11:43:42.392Z,17.73
2023-03-06T11:46:20.449Z,25.27
2023-03-06T11:49:24.020Z,19.15
2023-03-06T11:52:01.425Z,18.42
2023-03-06T11:54:29.606Z,24.42
2023-03-06T11:59:51.730Z,19.05
2023-03-06T12:02:57.041Z,11.88
2023-03-06T12:06:06.647Z,20.58
2023-03-06T12:08:52.446Z,15.55
2023-03-06T12:11:38.868Z,12.23
2023-03-06T12:14:31.929Z,12.70
2023-03-06T12:17:21.963Z,18.13
2023-03-06T12:20:04.587Z,17.08
2023-03-06T12:22:53.278Z,14.85
2023-03-06T12:25:34.268Z,16.25
2023-03-06T12:28:41.419Z,11.48
2023-03-06T12:31:20.701Z,13.57
2023-03-06T12:34:25.910Z,12.32
2023-03-06T12:37:02.686Z,16.42
2023-03-06T12:40:10.239Z,12.25
2023-03-06T12:43:33.104Z,12.57
2023-03-06T12:46:16.821Z,11.68
2023-03-06T12:48:52.243Z,13.40
2023-03-06T12:51:21.656Z,13.57
2023-03-06T12:53:51.343Z,9.30
2023-03-06T12:56:21.387Z,9.38
2023-03-06T12:58:57.752Z,11.48
2023-03-06T13:01:41.916Z,11.23
2023-03-06T13:04:23.065Z,7.18
2023-03-06T13:10:06.976Z,11.75
2023-03-06T13:12:57.683Z,11.90
2023-03-06T13:15:46.049Z,8.18
2023-03-06T13:18:23.210Z,6.88
2023-03-06T13:20:58.079Z,5.65
2023-03-06T13:23:37.278Z,10.07
2023-03-06T13:26:28.713Z,6.60
2023-03-06T13:28:58.639Z,5.60
2023-03-06T13:31:34.259Z,5.60
2023-03-06T13:34:04.272Z,12.52
2023-03-06T13:36:39.096Z,9.35
2023-03-06T13:39:12.122Z,8.57
2023-03-06T13:41:57.872Z,7.72
2023-03-06T13:44:28.979Z,15.75
2023-03-06T13:47:00.158Z,8.15
2023-03-06T13:49:30.346Z,8.25
2023-03-06T13:52:03.643Z,10.85
2023-03-06T13:54:50.728Z,5.75
2023-03-06T13:57:52.309Z,10.38
2023-03-06T14:00:46.128Z,8.52
2023-03-06T14:03:29.153Z,8.13
2023-03-06T14:05:57.028Z,9.35
2023-03-06T14:08:28.198Z,14.10
2023-03-06T14:11:15.812Z,10.20
2023-03-06T14:13:50.003Z,14.63
2023-03-06T14:16:25.872Z,10.05
2023-03-06T14:18:56.543Z,12.23
2023-03-06T14:21:31.246Z,6.93
2023-03-06T14:24:01.159Z,6.35
2023-03-06T14:26:34.288Z,7.43
2023-03-06T14:29:03.360Z,4.43
2023-03-06T14:31:37.914Z,8.27
2023-03-06T14:34:15.871Z,5.95
2023-03-06T14:36:46.303Z,6.75
2023-03-06T14:39:20.713Z,8.55
2023-03-06T14:41:48.270Z,6.97
2023-03-06T14:44:22.346Z,8.05
2023-03-06T14:46:52.476Z,7.15
2023-03-06T14:49:22.137Z,5.88
2023-03-06T14:52:00.958Z,13.50
2023-03-06T14:54:34.725Z,4.82
2023-03-06T14:57:08.771Z,5.43
2023-03-06T14:59:45.363Z,5.00
2023-03-06T15:02:21.602Z,5.60
2023-03-06T15:04:54.029Z,7.80
2023-03-06T15:07:32.905Z,10.55
2023-03-06T15:10:01.508Z,5.50
2023-03-06T15:12:30.209Z,9.82
2023-03-06T15:15:04.399Z,4.72
2023-03-06T15:17:40.216Z,4.25
2023-03-06T15:20:28.861Z,4.68
2023-03-06T15:22:56.517Z,4.28
2023-03-06T15:25:30.551Z,7.53
2023-03-06T15:27:57.973Z,4.70
2023-03-06T15:30:27.706Z,5.88
2023-03-06T15:33:19.991Z,5.32
2023-03-06T15:35:58.306Z,6.85
2023-03-06T15:38:42.166Z,7.38
2023-03-06T15:41:21.833Z,4.85
2023-03-06T15:43:49.871Z,3.45
2023-03-06T15:46:17.461Z,3.53
2023-03-06T15:49:03.282Z,8.48
2023-03-06T15:51:32.398Z,5.78
2023-03-06T15:54:11.392Z,6.18
2023-03-06T15:56:42.115Z,8.65
2023-03-06T15:59:19.689Z,5.28
2023-03-06T16:01:47.672Z,6.65
2023-03-06T16:04:17.420Z,7.43
2023-03-06T16:06:46.097Z,7.32
2023-03-06T16:09:14.635Z,4.38
2023-03-06T16:14:24.052Z,4.63
2023-03-06T16:16:54.402Z,6.72
2023-03-06T16:19:27.588Z,4.60
2023-03-06T16:21:56.848Z,2.70
2023-03-06T16:24:26.489Z,5.05
2023-03-06T16:26:55.277Z,4.57
2023-03-06T16:29:26.338Z,4.75
2023-03-06T16:31:55.593Z,2.75
2023-03-06T16:34:23.913Z,4.70
2023-03-06T16:36:51.828Z,5.25
2023-03-06T16:39:23.057Z,4.82
2023-03-06T16:41:50.906Z,4.43
2023-03-06T16:44:18.823Z,5.25
2023-03-06T16:46:48.411Z,5.32
2023-03-06T16:49:21.989Z,3.00
2023-03-06T16:51:50.196Z,3.80
2023-03-06T16:54:18.235Z,5.63
2023-03-06T16:56:46.012Z,2.97
2023-03-06T16:59:13.734Z,3.90
2023-03-06T17:01:45.003Z,7.47
2023-03-06T17:04:13.067Z,3.65
2023-03-06T17:06:42.072Z,6.07
2023-03-06T17:09:11.268Z,5.43
2023-03-06T17:11:39.068Z,6.65
2023-03-06T17:14:07.204Z,6.50
2023-03-06T17:16:36.901Z,4.43
2023-03-06T17:19:04.623Z,6.40
2023-03-06T17:21:32.139Z,7.20
2023-03-06T17:24:01.997Z,5.65
2023-03-06T17:26:29.813Z,4.88
2023-03-06T17:28:57.501Z,8.95
2023-03-06T17:31:29.062Z,7.10
2023-03-06T17:34:00.833Z,9.57
2023-03-06T17:36:29.639Z,9.35
2023-03-06T17:39:02.270Z,9.88
2023-03-06T17:41:30.249Z,9.07
2023-03-06T17:43:58.604Z,11.82
2023-03-06T17:46:26.543Z,18.13
2023-03-06T17:48:55.164Z,20.35
2023-03-06T17:51:22.709Z,22.90
2023-03-06T17:53:52.470Z,34.72
2023-03-06T17:56:20.146Z,37.72
2023-03-06T17:58:47.997Z,45.10
2023-03-06T18:01:19.116Z,43.78
2023-03-06T18:03:49.086Z,36.30
2023-03-06T18:06:18.108Z,27.17
2023-03-06T18:08:46.373Z,16.88
2023-03-06T18:11:14.650Z,15.23
2023-03-06T18:13:44.375Z,10.70
2023-03-06T18:16:14.360Z,9.98
2023-03-06T18:18:41.943Z,5.07
2023-03-06T18:21:12.004Z,6.68
2023-03-06T18:23:40.698Z,4.38
2023-03-06T18:26:12.003Z,9.60
2023-03-06T18:28:42.694Z,4.72
2023-03-06T18:31:17.217Z,5.43
2023-03-06T18:33:45.714Z,5.30
2023-03-06T18:36:13.407Z,5.53
2023-03-06T18:38:43.231Z,6.30
2023-03-06T18:41:11.959Z,5.07
2023-03-06T18:43:40.105Z,3.85
2023-03-06T18:46:08.058Z,4.40
2023-03-06T18:48:36.314Z,4.45
2023-03-06T18:51:09.465Z,5.53
2023-03-06T18:53:37.291Z,3.70
2023-03-06T18:56:08.382Z,3.17
2023-03-06T18:58:35.801Z,3.97
2023-03-06T19:01:09.204Z,6.15
2023-03-06T19:03:36.827Z,5.45
2023-03-06T19:06:09.359Z,2.95
2023-03-06T19:08:38.809Z,3.47
2023-03-06T19:11:12.634Z,4.25
2023-03-06T19:13:40.134Z,3.05
2023-03-06T19:16:08.146Z,4.63
2023-03-06T19:18:36.048Z,4.22
2023-03-06T19:21:20.852Z,4.68
2023-03-06T19:23:48.893Z,4.33
2023-03-06T19:26:18.911Z,3.60
2023-03-06T19:28:47.063Z,4.40
2023-03-06T19:31:20.809Z,5.95
2023-03-06T19:33:49.697Z,3.95
2023-03-06T19:36:18.729Z,3.55
2023-03-06T19:38:50.582Z,5.15
2023-03-06T19:41:18.153Z,4.35
2023-03-06T19:43:52.446Z,5.47
2023-03-06T19:46:21.293Z,3.65
2023-03-06T19:48:49.137Z,7.13
2023-03-06T19:51:16.704Z,2.42
2023-03-06T19:53:44.364Z,3.55
2023-03-06T19:56:21.732Z,4.40
2023-03-06T19:58:49.301Z,3.38
2023-03-06T20:01:19.638Z,3.08
2023-03-06T20:03:47.469Z,2.65
2023-03-06T20:06:18.788Z,4.65
2023-03-06T20:08:47.701Z,4.32
2023-03-06T20:11:19.859Z,4.57
2023-03-06T20:13:47.977Z,3.88
2023-03-06T20:16:17.160Z,6.65
2023-03-06T20:18:45.888Z,4.40
2023-03-06T20:21:13.916Z,5.07
2023-03-06T20:23:41.975Z,5.80
2023-03-06T20:26:12.269Z,5.70
2023-03-06T20:28:41.679Z,5.45
2023-03-06T20:31:18.894Z,7.25
2023-03-06T20:33:48.790Z,3.65
2023-03-06T20:36:19.687Z,10.32
2023-03-06T20:38:47.720Z,6.07
2023-03-06T20:41:23.122Z,4.30
2023-03-06T20:43:50.901Z,3.53
2023-03-06T20:46:19.870Z,4.97
2023-03-06T20:48:52.697Z,4.20
2023-03-06T20:51:32.589Z,4.00
2023-03-06T20:54:01.811Z,4.45
2023-03-06T20:56:32.415Z,3.38
2023-03-06T20:59:00.017Z,4.72
2023-03-06T21:01:29.825Z,4.10
2023-03-06T21:03:58.385Z,3.25
2023-03-06T21:06:28.464Z,5.05
2023-03-06T21:09:00.344Z,3.95
2023-03-06T21:11:28.422Z,5.63
2023-03-06T21:13:57.054Z,4.72
2023-03-06T21:16:26.595Z,4.70
2023-03-06T21:18:55.960Z,3.42
2023-03-06T21:21:25.924Z,4.70
2023-03-06T21:23:53.709Z,4.63
2023-03-06T21:26:23.715Z,7.35
2023-03-06T21:28:51.913Z,4.57
2023-03-06T21:31:21.385Z,6.90
2023-03-06T21:33:50.249Z,4.35
2023-03-06T21:36:19.415Z,4.90
2023-03-06T21:38:48.400Z,7.13
2023-03-06T21:41:20.982Z,7.75
2023-03-06T21:43:48.484Z,5.55
2023-03-06T21:46:16.422Z,6.15
2023-03-06T21:48:44.118Z,5.50
2023-03-06T21:51:16.065Z,5.10
2023-03-06T21:53:44.367Z,5.95
2023-03-06T21:56:13.391Z,5.30
2023-03-06T21:58:41.158Z,6.32
2023-03-06T22:01:13.658Z,7.93
2023-03-06T22:03:41.140Z,7.43
2023-03-06T22:06:17.972Z,4.80
2023-03-06T22:08:46.353Z,5.70
2023-03-06T22:11:16.133Z,5.72
2023-03-06T22:13:44.476Z,5.38
2023-03-06T22:16:12.749Z,7.00
2023-03-06T22:18:44.015Z,6.38
2023-03-06T22:21:13.702Z,4.32
2023-03-06T22:23:41.656Z,4.57
2023-03-06T22:26:12.959Z,4.80
2023-03-06T22:28:40.883Z,5.88
2023-03-06T22:31:16.997Z,6.07
2023-03-06T22:33:45.258Z,6.28
2023-03-06T22:36:15.338Z,6.65
2023-03-06T22:38:46.989Z,4.80
2023-03-06T22:41:17.066Z,5.05
2023-03-06T22:43:44.713Z,7.03
2023-03-06T22:46:14.757Z,5.35
2023-03-06T22:48:42.780Z,4.63
2023-03-06T22:51:16.521Z,8.25
2023-03-06T22:53:44.781Z,5.30
2023-03-06T22:56:14.941Z,7.53
2023-03-06T22:58:45.063Z,4.70
2023-03-06T23:01:19.017Z,5.45
2023-03-06T23:03:49.253Z,7.40
2023-03-06T23:06:20.207Z,5.47
2023-03-06T23:08:54.177Z,5.20
2023-03-06T23:11:22.773Z,6.28
2023-03-06T23:14:12.355Z,4.55
2023-03-06T23:16:58.472Z,6.68
2023-03-06T23:19:44.446Z,7.50
2023-03-06T23:22:31.354Z,5.88
2023-03-06T23:25:17.300Z,5.53
2023-03-06T23:27:44.962Z,3.90
2023-03-06T23:30:13.144Z,4.43
2023-03-06T23:32:40.801Z,6.25
2023-03-06T23:35:08.673Z,4.50
2023-03-06T23:37:36.333Z,3.92
2023-03-06T23:40:05.413Z,3.35
2023-03-06T23:42:33.136Z,4.15
2023-03-06T23:45:00.839Z,5.00
2023-03-06T23:47:32.391Z,3.88
2023-03-06T23:50:00.155Z,5.15
2023-03-06T23:52:27.800Z,6.28
2023-03-06T23:54:55.566Z,8.18
2023-03-06T23:57:23.134Z,6.03
2023-03-06T23:59:50.843Z,6.47
